Time;durP1;ratioP1;P1;durP2;ratioP2;P2;SDS_P1;SDS_P2;PMS_P1;PMS_P2;Temp;Humidity;BMP_temperature;BMP_pressure;BME280_temperature;BME280_humidity;BME280_pressure;Samples;Min_cycle;Max_cycle;Signal;HPM_P1;HPM_P2
2023/03/31 00:01:34;;;;;;;34.47;4.50;;;;;;;;;;5030897;28;20030;-77
2023/03/31 00:04:03;;;;;;;37.03;3.97;;;;;;;;;;5029640;28;20056;-76
2023/03/31 00:06:36;;;;;;;31.17;3.95;;;;;;;;;;5033395;28;20053;-75
2023/03/31 00:09:07;;;;;;;39.05;6.43;;;;;;;;;;5034653;28;20600;-74
2023/03/31 00:11:33;;;;;;;33.25;4.13;;;;;;;;;;5033225;28;20441;-75
2023/03/31 00:13:59;;;;;;;42.17;4.60;;;;;;;;;;5034418;28;20025;-76
2023/03/31 00:16:25;;;;;;;30.13;4.50;;;;;;;;;;5034512;28;20037;-75
2023/03/31 00:18:51;;;;;;;40.15;5.30;;;;;;;;;;5034694;28;20021;-76
2023/03/31 00:21:32;;;;;;;34.22;5.10;;;;;;;;;;5034498;28;20622;-78
2023/03/31 00:24:03;;;;;;;36.35;4.75;;;;;;;;;;5034384;28;20025;-79
2023/03/31 00:26:29;;;;;;;31.15;4.50;;;;;;;;;;5034253;28;20033;-80
2023/03/31 00:28:56;;;;;;;35.42;4.28;;;;;;;;;;5034292;28;20044;-77
2023/03/31 00:31:22;;;;;;;47.22;6.43;;;;;;;;;;5034131;28;20018;-75
2023/03/31 00:33:49;;;;;;;43.72;6.75;;;;;;;;;;5034179;28;20032;-76
2023/03/31 00:36:19;;;;;;;48.60;5.65;;;;;;;;;;5033911;28;20033;-72
2023/03/31 00:38:46;;;;;;;39.25;5.82;;;;;;;;;;5032674;28;20032;-74
2023/03/31 00:41:13;;;;;;;40.33;6.13;;;;;;;;;;5033782;28;20052;-74
2023/03/31 00:43:40;;;;;;;48.63;7.53;;;;;;;;;;5034069;28;20052;-77
2023/03/31 00:46:16;;;;;;;40.92;4.90;;;;;;;;;;5034230;28;20017;-78
2023/03/31 00:48:46;;;;;;;45.80;7.05;;;;;;;;;;5032482;28;20079;-75
2023/03/31 00:51:13;;;;;;;43.53;6.63;;;;;;;;;;5033816;28;20060;-72
2023/03/31 00:53:40;;;;;;;44.63;6.18;;;;;;;;;;5033684;28;20512;-74
2023/03/31 00:56:08;;;;;;;0.20;0.20;;;;;;;;;;5033666;28;20379;-77
2023/03/31 00:58:42;;;;;;;5.88;1.65;;;;;;;;;;5033738;28;20619;-75
2023/03/31 01:01:10;;;;;;;0.30;0.30;;;;;;;;;;5033735;28;20026;-74
2023/03/31 01:03:37;;;;;;;0.63;0.63;;;;;;;;;;5033643;28;20017;-80
2023/03/31 01:06:05;;;;;;;0.20;0.20;;;;;;;;;;5033716;28;20023;-78
2023/03/31 01:08:35;;;;;;;0.20;0.20;;;;;;;;;;5033760;28;20355;-76
2023/03/31 01:11:03;;;;;;;0.40;0.40;;;;;;;;;;5033385;28;20029;-79
2023/03/31 01:13:30;;;;;;;1.10;0.85;;;;;;;;;;5033675;28;20030;-80
2023/03/31 01:15:57;;;;;;;0.20;0.20;;;;;;;;;;5033268;28;20064;-76
2023/03/31 01:18:23;;;;;;;0.20;0.20;;;;;;;;;;5032301;28;20025;-73
2023/03/31 01:20:49;;;;;;;0.40;0.40;;;;;;;;;;5033213;28;20030;-74
2023/03/31 01:23:34;;;;;;;0.20;0.20;;;;;;;;;;5033349;28;20380;-71
2023/03/31 01:26:19;;;;;;;0.10;0.10;;;;;;;;;;5033214;28;20026;-69
2023/03/31 01:29:04;;;;;;;1.50;1.40;;;;;;;;;;5033412;28;20040;-69
2023/03/31 01:31:48;;;;;;;0.47;0.47;;;;;;;;;;5032892;28;20029;-66
2023/03/31 01:34:14;;;;;;;0.80;0.80;;;;;;;;;;5033213;28;20097;-66
2023/03/31 01:36:41;;;;;;;0.20;0.20;;;;;;;;;;5033163;28;20036;-66
2023/03/31 01:39:19;;;;;;;8.95;0.52;;;;;;;;;;5046550;28;20032;-67
2023/03/31 01:41:48;;;;;;;0.50;0.50;;;;;;;;;;5052296;28;20049;-66
2023/03/31 01:44:38;;;;;;;5.93;1.48;;;;;;;;;;5052674;28;20068;-65
2023/03/31 01:47:10;;;;;;;1.10;1.10;;;;;;;;;;5052578;28;20469;-69
2023/03/31 01:49:44;;;;;;;3.58;3.22;;;;;;;;;;5052649;28;20477;-68
2023/03/31 01:52:33;;;;;;;0.52;0.52;;;;;;;;;;5052661;28;20466;-69
2023/03/31 01:55:24;;;;;;;0.20;0.20;;;;;;;;;;5052422;28;20099;-69
2023/03/31 01:57:54;;;;;;;0.80;0.52;;;;;;;;;;5050921;28;20051;-70
2023/03/31 02:00:25;;;;;;;0.20;0.20;;;;;;;;;;5052391;28;20031;-68
2023/03/31 02:02:56;;;;;;;0.20;0.20;;;;;;;;;;5052416;28;20021;-69
2023/03/31 02:05:25;;;;;;;0.20;0.20;;;;;;;;;;5052539;28;20474;-72
2023/03/31 02:07:55;;;;;;;6.47;5.82;;;;;;;;;;5052100;28;20627;-73
2023/03/31 02:10:22;;;;;;;0.20;0.20;;;;;;;;;;5051997;28;20477;-76
2023/03/31 02:12:49;;;;;;;5.90;1.88;;;;;;;;;;5052260;28;20457;-74
2023/03/31 02:15:18;;;;;;;3.25;1.40;;;;;;;;;;5051737;28;20033;-74
2023/03/31 02:17:48;;;;;;;0.20;0.20;;;;;;;;;;5052205;28;20025;-75
2023/03/31 02:20:15;;;;;;;0.20;0.20;;;;;;;;;;5052118;28;20055;-76
2023/03/31 02:22:43;;;;;;;11.40;1.10;;;;;;;;;;5050839;28;20434;-72
2023/03/31 02:25:11;;;;;;;6.00;1.38;;;;;;;;;;5052076;28;20032;-70
2023/03/31 02:27:41;;;;;;;3.03;2.20;;;;;;;;;;5033756;28;20513;-71
2023/03/31 02:30:08;;;;;;;0.93;0.40;;;;;;;;;;5051576;28;20385;-68
2023/03/31 02:32:36;;;;;;;0.20;0.20;;;;;;;;;;5051788;28;20021;-68
2023/03/31 02:35:03;;;;;;;0.20;0.20;;;;;;;;;;5051680;28;20037;-68
2023/03/31 02:37:30;;;;;;;3.63;1.98;;;;;;;;;;5051598;28;20020;-68
2023/03/31 02:39:57;;;;;;;1.70;1.65;;;;;;;;;;5051655;28;20023;-68
2023/03/31 02:42:24;;;;;;;1.67;1.58;;;;;;;;;;5051375;28;20045;-69
2023/03/31 02:44:50;;;;;;;1.95;1.85;;;;;;;;;;5051502;28;20028;-67
2023/03/31 02:47:18;;;;;;;0.20;0.20;;;;;;;;;;5051311;28;20021;-67
2023/03/31 02:49:52;;;;;;;2.05;0.95;;;;;;;;;;5051682;28;20378;-70
2023/03/31 02:52:28;;;;;;;4.80;0.77;;;;;;;;;;5051604;28;20079;-71
2023/03/31 02:54:55;;;;;;;0.20;0.20;;;;;;;;;;5051139;28;20112;-70
2023/03/31 02:57:39;;;;;;;0.82;0.82;;;;;;;;;;5051577;28;20112;-74
2023/03/31 03:00:07;;;;;;;1.80;1.77;;;;;;;;;;5051193;28;20533;-73
2023/03/31 03:02:52;;;;;;;0.50;0.50;;;;;;;;;;5051333;28;20039;-71
2023/03/31 03:05:23;;;;;;;0.30;0.30;;;;;;;;;;5051128;28;20048;-68
2023/03/31 03:08:03;;;;;;;0.20;0.20;;;;;;;;;;5051256;28;20031;-67
2023/03/31 03:10:45;;;;;;;0.93;0.93;;;;;;;;;;5051267;28;20031;-66
2023/03/31 03:13:22;;;;;;;12.55;1.25;;;;;;;;;;5050905;28;20756;-67
2023/03/31 03:15:56;;;;;;;9.82;4.38;;;;;;;;;;5051038;28;20036;-67
2023/03/31 03:18:22;;;;;;;0.20;0.20;;;;;;;;;;5051130;28;20062;-69
2023/03/31 03:20:49;;;;;;;3.17;2.92;;;;;;;;;;5051006;28;20583;-67
2023/03/31 03:23:16;;;;;;;5.10;2.95;;;;;;;;;;5051015;28;20595;-70
2023/03/31 03:25:43;;;;;;;0.68;0.40;;;;;;;;;;5050964;28;20025;-72
2023/03/31 03:28:09;;;;;;;1.83;0.52;;;;;;;;;;5049382;28;20037;-75
2023/03/31 03:30:36;;;;;;;0.20;0.20;;;;;;;;;;5050891;28;20021;-76
2023/03/31 03:33:05;;;;;;;0.20;0.20;;;;;;;;;;5051061;28;20362;-75
2023/03/31 03:35:31;;;;;;;19.42;1.85;;;;;;;;;;5050641;28;20041;-76
2023/03/31 03:37:57;;;;;;;0.20;0.20;;;;;;;;;;5050707;28;20053;-73
2023/03/31 03:40:23;;;;;;;0.88;0.65;;;;;;;;;;5051731;28;20095;-68
2023/03/31 03:42:49;;;;;;;9.13;2.92;;;;;;;;;;5054855;28;20033;-68
2023/03/31 03:45:15;;;;;;;2.65;1.90;;;;;;;;;;5054844;28;20023;-66
2023/03/31 03:47:41;;;;;;;1.90;1.80;;;;;;;;;;5054914;28;20021;-70
2023/03/31 03:50:07;;;;;;;1.17;1.10;;;;;;;;;;5054769;28;20032;-70
2023/03/31 03:52:33;;;;;;;0.47;0.47;;;;;;;;;;5055073;28;20031;-67
2023/03/31 03:55:00;;;;;;;0.50;0.50;;;;;;;;;;5054779;28;20108;-67
2023/03/31 03:57:26;;;;;;;0.20;0.20;;;;;;;;;;5054512;28;20366;-68
2023/03/31 03:59:52;;;;;;;18.10;1.45;;;;;;;;;;5054993;28;20021;-68
2023/03/31 04:02:18;;;;;;;0.50;0.50;;;;;;;;;;5054807;28;20025;-66
2023/03/31 04:04:44;;;;;;;1.20;1.10;;;;;;;;;;5054827;28;20527;-66
2023/03/31 04:07:10;;;;;;;0.77;0.77;;;;;;;;;;5054527;28;20021;-67
2023/03/31 04:09:36;;;;;;;9.82;3.13;;;;;;;;;;5054693;28;20028;-67
2023/03/31 04:12:03;;;;;;;2.33;2.17;;;;;;;;;;5054476;28;20512;-67
2023/03/31 04:14:29;;;;;;;0.88;0.88;;;;;;;;;;5054507;28;20052;-67
2023/03/31 04:16:57;;;;;;;0.20;0.20;;;;;;;;;;5054598;28;20025;-67
2023/03/31 04:19:24;;;;;;;0.60;0.60;;;;;;;;;;5054627;28;20025;-67
2023/03/31 04:21:57;;;;;;;0.20;0.20;;;;;;;;;;5054351;28;20354;-65
2023/03/31 04:24:31;;;;;;;4.45;1.35;;;;;;;;;;5054222;28;20017;-64
2023/03/31 04:26:57;;;;;;;0.98;0.98;;;;;;;;;;5054350;28;20017;-64
2023/03/31 04:29:25;;;;;;;1.17;1.08;;;;;;;;;;5054311;28;20018;-65
2023/03/31 04:31:52;;;;;;;0.20;0.20;;;;;;;;;;5054231;28;20054;-64
2023/03/31 04:34:21;;;;;;;0.20;0.20;;;;;;;;;;5053949;28;20029;-63
2023/03/31 04:36:47;;;;;;;0.20;0.20;;;;;;;;;;5053820;28;20037;-64
2023/03/31 04:39:14;;;;;;;0.20;0.20;;;;;;;;;;5054140;28;20021;-64
2023/03/31 04:41:40;;;;;;;0.20;0.20;;;;;;;;;;5053829;28;20421;-62
2023/03/31 04:44:06;;;;;;;0.20;0.20;;;;;;;;;;5054071;28;20056;-64
2023/03/31 04:46:32;;;;;;;0.20;0.20;;;;;;;;;;5053814;28;20403;-62
2023/03/31 04:48:59;;;;;;;0.85;0.85;;;;;;;;;;5053658;28;20024;-63
2023/03/31 04:51:25;;;;;;;2.33;2.17;;;;;;;;;;5053497;28;20025;-61
2023/03/31 04:53:51;;;;;;;2.00;1.67;;;;;;;;;;5054029;28;20024;-61
2023/03/31 04:56:17;;;;;;;0.20;0.20;;;;;;;;;;5053761;28;20037;-63
2023/03/31 04:58:44;;;;;;;4.38;3.60;;;;;;;;;;5053629;28;20104;-62
2023/03/31 05:01:16;;;;;;;0.93;0.55;;;;;;;;;;5053535;28;20083;-63
2023/03/31 05:03:42;;;;;;;0.73;0.73;;;;;;;;;;5053683;28;20017;-65
2023/03/31 05:06:09;;;;;;;0.68;0.68;;;;;;;;;;5053590;28;20036;-64
2023/03/31 05:08:36;;;;;;;0.20;0.20;;;;;;;;;;5053475;28;20047;-64
2023/03/31 05:11:02;;;;;;;0.20;0.20;;;;;;;;;;5053287;28;20091;-66
2023/03/31 05:13:28;;;;;;;0.75;0.75;;;;;;;;;;5053441;28;20099;-66
2023/03/31 05:15:55;;;;;;;0.40;0.40;;;;;;;;;;5053381;28;20469;-65
2023/03/31 05:18:21;;;;;;;4.72;0.50;;;;;;;;;;5053251;28;20025;-64
2023/03/31 05:20:47;;;;;;;2.58;0.57;;;;;;;;;;5053079;28;20025;-66
2023/03/31 05:23:13;;;;;;;0.20;0.20;;;;;;;;;;5053202;28;20104;-65
2023/03/31 05:25:41;;;;;;;0.22;0.22;;;;;;;;;;5053071;28;20059;-67
2023/03/31 05:28:08;;;;;;;0.22;0.22;;;;;;;;;;5053131;28;20029;-68
2023/03/31 05:30:34;;;;;;;0.20;0.20;;;;;;;;;;5053059;28;20465;-70
2023/03/31 05:33:00;;;;;;;2.72;2.55;;;;;;;;;;5053042;28;20021;-73
2023/03/31 05:35:28;;;;;;;0.20;0.20;;;;;;;;;;5053022;28;20071;-74
2023/03/31 05:37:54;;;;;;;2.42;1.33;;;;;;;;;;5032369;28;20025;-78
2023/03/31 05:40:20;;;;;;;7.97;0.80;;;;;;;;;;5033177;28;20079;-76
2023/03/31 05:42:46;;;;;;;8.23;3.50;;;;;;;;;;5031888;28;20052;-83
2023/03/31 05:45:13;;;;;;;26.08;1.23;;;;;;;;;;5033539;28;20021;-80
2023/03/31 05:47:39;;;;;;;1.00;0.98;;;;;;;;;;5033045;28;20036;-83
2023/03/31 05:50:07;;;;;;;15.70;4.22;;;;;;;;;;5032593;28;20109;-78
2023/03/31 05:52:34;;;;;;;4.63;0.90;;;;;;;;;;5032669;28;20107;-75
2023/03/31 05:55:00;;;;;;;0.75;0.75;;;;;;;;;;5032807;28;20420;-80
2023/03/31 05:57:26;;;;;;;0.43;0.43;;;;;;;;;;5032839;28;20025;-81
2023/03/31 05:59:52;;;;;;;0.60;0.60;;;;;;;;;;5032743;28;20436;-77
2023/03/31 06:02:18;;;;;;;0.20;0.20;;;;;;;;;;5032547;28;20029;-76
2023/03/31 06:04:44;;;;;;;0.20;0.20;;;;;;;;;;5031817;28;20021;-74
2023/03/31 06:07:10;;;;;;;0.77;0.77;;;;;;;;;;5032577;28;20022;-72
2023/03/31 06:09:36;;;;;;;0.30;0.30;;;;;;;;;;5032482;28;20409;-72
2023/03/31 06:12:02;;;;;;;26.10;5.97;;;;;;;;;;5031029;28;20441;-70
2023/03/31 06:14:28;;;;;;;1.00;0.93;;;;;;;;;;5044081;28;20487;-70
2023/03/31 06:16:54;;;;;;;1.70;1.60;;;;;;;;;;5052007;28;20105;-71
2023/03/31 06:19:21;;;;;;;0.43;0.43;;;;;;;;;;5051954;28;20043;-73
2023/03/31 06:21:47;;;;;;;2.85;1.17;;;;;;;;;;5052163;28;20060;-75
2023/03/31 06:24:13;;;;;;;17.20;3.78;;;;;;;;;;5052476;28;20021;-83
2023/03/31 06:26:39;;;;;;;0.82;0.52;;;;;;;;;;5056638;28;20028;-82
2023/03/31 06:29:05;;;;;;;0.52;0.52;;;;;;;;;;5047123;28;20021;-71
2023/03/31 06:31:31;;;;;;;4.28;1.85;;;;;;;;;;5033737;28;20182;-70
2023/03/31 06:33:57;;;;;;;0.28;0.28;;;;;;;;;;5040812;28;20021;-72
2023/03/31 06:36:23;;;;;;;0.40;0.40;;;;;;;;;;5051669;28;20359;-71
2023/03/31 06:38:50;;;;;;;2.45;2.25;;;;;;;;;;5052105;28;20155;-72
2023/03/31 06:41:17;;;;;;;0.13;0.13;;;;;;;;;;5051719;28;20060;-70
2023/03/31 06:43:43;;;;;;;0.20;0.20;;;;;;;;;;5051389;28;20043;-68
2023/03/31 06:46:09;;;;;;;0.32;0.32;;;;;;;;;;5050411;28;20033;-66
2023/03/31 06:48:36;;;;;;;1.27;1.17;;;;;;;;;;5051609;28;20508;-63
2023/03/31 06:51:03;;;;;;;0.47;0.47;;;;;;;;;;5051320;28;20552;-64
2023/03/31 06:53:29;;;;;;;0.50;0.50;;;;;;;;;;5051749;28;20032;-63
2023/03/31 06:55:55;;;;;;;3.95;1.75;;;;;;;;;;5051470;28;20044;-63
2023/03/31 06:58:21;;;;;;;1.75;1.50;;;;;;;;;;5051619;28;20029;-63
2023/03/31 07:00:48;;;;;;;0.93;0.93;;;;;;;;;;5037037;28;20516;-66
2023/03/31 07:03:17;;;;;;;2.10;1.25;;;;;;;;;;5031318;28;20363;-67
2023/03/31 07:05:47;;;;;;;3.25;1.20;;;;;;;;;;5034670;28;20041;-67
2023/03/31 07:08:13;;;;;;;1.52;1.35;;;;;;;;;;5048839;28;20022;-68
2023/03/31 07:10:39;;;;;;;0.73;0.65;;;;;;;;;;5031113;28;20188;-71
2023/03/31 07:13:05;;;;;;;15.93;3.30;;;;;;;;;;5032210;28;20355;-76
2023/03/31 07:15:32;;;;;;;0.40;0.40;;;;;;;;;;5044623;28;20044;-72
2023/03/31 07:18:01;;;;;;;3.25;0.57;;;;;;;;;;5049875;28;20025;-70
2023/03/31 07:20:28;;;;;;;24.10;2.13;;;;;;;;;;5039031;28;20017;-71
2023/03/31 07:22:54;;;;;;;0.20;0.20;;;;;;;;;;5034522;28;20359;-71
2023/03/31 07:25:20;;;;;;;0.70;0.70;;;;;;;;;;5034078;28;20026;-72
2023/03/31 07:27:46;;;;;;;1.50;1.40;;;;;;;;;;5035198;28;20036;-72
2023/03/31 07:30:17;;;;;;;22.40;6.55;;;;;;;;;;5030589;28;20111;-74
2023/03/31 07:32:43;;;;;;;3.95;2.20;;;;;;;;;;5045139;28;20490;-73
2023/03/31 07:35:10;;;;;;;0.28;0.28;;;;;;;;;;5034281;28;20042;-73
2023/03/31 07:37:41;;;;;;;0.40;0.40;;;;;;;;;;5030784;28;20466;-77
2023/03/31 07:40:08;;;;;;;0.20;0.20;;;;;;;;;;5041326;28;20034;-74
2023/03/31 07:42:34;;;;;;;0.20;0.20;;;;;;;;;;5050894;28;20061;-69
2023/03/31 07:45:01;;;;;;;0.15;0.15;;;;;;;;;;5051166;28;20025;-65
2023/03/31 07:47:27;;;;;;;0.20;0.20;;;;;;;;;;5051077;28;20028;-65
2023/03/31 07:49:54;;;;;;;0.20;0.20;;;;;;;;;;5050759;28;20021;-64
2023/03/31 07:52:20;;;;;;;0.28;0.28;;;;;;;;;;5050909;28;20031;-65
2023/03/31 07:54:46;;;;;;;0.20;0.20;;;;;;;;;;5050695;28;20109;-65
2023/03/31 07:57:13;;;;;;;0.20;0.20;;;;;;;;;;5050888;28;20082;-63
2023/03/31 07:59:39;;;;;;;1.65;1.52;;;;;;;;;;5051026;28;20057;-62
2023/03/31 08:02:05;;;;;;;0.20;0.20;;;;;;;;;;5050607;28;20386;-62
2023/03/31 08:04:31;;;;;;;0.15;0.15;;;;;;;;;;5050784;28;20021;-63
2023/03/31 08:06:57;;;;;;;17.00;2.25;;;;;;;;;;5050854;28;20025;-61
2023/03/31 08:09:23;;;;;;;0.20;0.20;;;;;;;;;;5050712;28;20040;-62
2023/03/31 08:11:49;;;;;;;0.40;0.32;;;;;;;;;;5050832;28;20036;-62
2023/03/31 08:14:15;;;;;;;0.20;0.20;;;;;;;;;;5050893;28;20060;-60
2023/03/31 08:16:41;;;;;;;1.38;1.13;;;;;;;;;;5050678;28;20026;-61
2023/03/31 08:19:08;;;;;;;0.38;0.38;;;;;;;;;;5050711;28;20029;-62
2023/03/31 08:21:34;;;;;;;0.30;0.30;;;;;;;;;;5050562;28;20029;-63
2023/03/31 08:24:00;;;;;;;0.30;0.30;;;;;;;;;;5050677;28;20033;-64
2023/03/31 08:26:26;;;;;;;0.20;0.20;;;;;;;;;;5051592;28;20032;-68
2023/03/31 08:28:52;;;;;;;2.83;1.05;;;;;;;;;;5054291;28;20405;-69
2023/03/31 08:31:20;;;;;;;3.95;2.95;;;;;;;;;;5054295;28;20381;-74
2023/03/31 08:33:47;;;;;;;1.25;1.15;;;;;;;;;;5054583;28;20021;-74
2023/03/31 08:36:13;;;;;;;0.60;0.60;;;;;;;;;;5054245;28;20098;-72
2023/03/31 08:38:40;;;;;;;1.45;1.30;;;;;;;;;;5054018;28;20439;-71
2023/03/31 08:41:07;;;;;;;0.20;0.20;;;;;;;;;;5053925;28;20110;-71
2023/03/31 08:43:40;;;;;;;0.70;0.68;;;;;;;;;;5053916;28;20432;-70
2023/03/31 08:46:10;;;;;;;1.00;1.00;;;;;;;;;;5053996;28;20040;-71
2023/03/31 08:48:47;;;;;;;0.30;0.30;;;;;;;;;;5053940;28;20021;-71
2023/03/31 08:51:20;;;;;;;1.23;1.23;;;;;;;;;;5053891;28;20037;-74
2023/03/31 08:53:51;;;;;;;0.20;0.20;;;;;;;;;;5053864;28;20078;-72
2023/03/31 08:56:18;;;;;;;1.25;1.20;;;;;;;;;;5053650;28;20585;-72
2023/03/31 08:58:46;;;;;;;1.65;0.68;;;;;;;;;;5053734;28;20029;-71
2023/03/31 09:01:15;;;;;;;3.05;2.35;;;;;;;;;;5054022;28;20039;-70
2023/03/31 09:03:44;;;;;;;0.98;0.95;;;;;;;;;;5053529;28;20182;-71
2023/03/31 09:06:14;;;;;;;0.20;0.20;;;;;;;;;;5053802;28;20040;-69
2023/03/31 09:08:43;;;;;;;1.70;1.63;;;;;;;;;;5053482;28;20561;-70
2023/03/31 09:11:12;;;;;;;0.90;0.90;;;;;;;;;;5053910;28;20536;-70
2023/03/31 09:13:57;;;;;;;0.22;0.22;;;;;;;;;;5053484;28;20461;-71
2023/03/31 09:16:24;;;;;;;4.68;2.13;;;;;;;;;;5051866;28;20056;-71
2023/03/31 09:18:52;;;;;;;0.20;0.20;;;;;;;;;;5053371;28;20362;-71
2023/03/31 09:21:27;;;;;;;1.05;1.05;;;;;;;;;;5053089;28;20025;-71
2023/03/31 09:23:58;;;;;;;0.30;0.30;;;;;;;;;;5053401;28;20025;-70
2023/03/31 09:26:38;;;;;;;0.20;0.20;;;;;;;;;;5053274;28;20016;-69
2023/03/31 09:29:07;;;;;;;1.48;1.38;;;;;;;;;;5053278;28;20075;-69
2023/03/31 09:31:34;;;;;;;0.43;0.43;;;;;;;;;;5053077;28;20017;-70
2023/03/31 09:34:01;;;;;;;7.55;2.70;;;;;;;;;;5053129;28;20057;-71
2023/03/31 09:36:27;;;;;;;14.02;2.17;;;;;;;;;;5053093;28;20397;-71
2023/03/31 09:38:54;;;;;;;1.42;1.27;;;;;;;;;;5051901;28;20068;-71
2023/03/31 09:41:20;;;;;;;0.57;0.57;;;;;;;;;;5052857;28;20056;-71
2023/03/31 09:43:48;;;;;;;0.57;0.57;;;;;;;;;;5052929;28;20090;-71
2023/03/31 09:46:17;;;;;;;0.63;0.63;;;;;;;;;;5052879;28;20474;-70
2023/03/31 09:48:49;;;;;;;7.88;3.30;;;;;;;;;;5052820;28;20071;-70
2023/03/31 09:51:18;;;;;;;1.35;0.90;;;;;;;;;;5052560;28;20481;-69
2023/03/31 09:53:53;;;;;;;0.20;0.20;;;;;;;;;;5052733;28;20388;-68
2023/03/31 09:56:46;;;;;;;0.30;0.30;;;;;;;;;;5051191;28;20397;-69
2023/03/31 09:59:13;;;;;;;0.52;0.52;;;;;;;;;;5050251;28;20129;-69
2023/03/31 10:01:41;;;;;;;0.93;0.93;;;;;;;;;;5052739;28;20021;-66
2023/03/31 10:04:12;;;;;;;0.20;0.20;;;;;;;;;;5052498;28;20064;-66
2023/03/31 10:06:41;;;;;;;0.52;0.52;;;;;;;;;;5052751;28;20087;-66
2023/03/31 10:09:10;;;;;;;2.53;1.83;;;;;;;;;;5052518;28;20393;-65
2023/03/31 10:11:36;;;;;;;0.20;0.20;;;;;;;;;;5052473;28;20029;-66
2023/03/31 10:14:04;;;;;;;0.50;0.50;;;;;;;;;;5052479;28;20067;-65
2023/03/31 10:16:32;;;;;;;0.20;0.20;;;;;;;;;;5052042;28;20040;-64
2023/03/31 10:19:16;;;;;;;15.60;1.98;;;;;;;;;;5052259;28;20427;-65
2023/03/31 10:21:45;;;;;;;0.20;0.20;;;;;;;;;;5052011;28;20497;-64
2023/03/31 10:24:11;;;;;;;4.47;2.13;;;;;;;;;;5052245;28;20025;-64
2023/03/31 10:26:37;;;;;;;32.17;2.67;;;;;;;;;;5051975;28;20032;-64
2023/03/31 10:29:09;;;;;;;0.15;0.15;;;;;;;;;;5052010;28;20504;-66
2023/03/31 10:31:36;;;;;;;0.20;0.20;;;;;;;;;;5052142;28;20108;-65
2023/03/31 10:34:14;;;;;;;0.20;0.20;;;;;;;;;;5051859;28;20021;-64
2023/03/31 10:36:44;;;;;;;1.15;0.95;;;;;;;;;;5052144;28;20044;-65
2023/03/31 10:39:13;;;;;;;18.92;3.50;;;;;;;;;;5050955;28;20039;-71
2023/03/31 10:41:39;;;;;;;10.05;4.75;;;;;;;;;;5053266;28;20053;-78
2023/03/31 10:44:05;;;;;;;10.77;2.83;;;;;;;;;;5052073;28;20183;-74
2023/03/31 10:46:48;;;;;;;0.20;0.20;;;;;;;;;;5051695;28;20025;-74
2023/03/31 10:49:16;;;;;;;0.20;0.20;;;;;;;;;;5051531;28;20043;-72
2023/03/31 10:51:48;;;;;;;0.20;0.20;;;;;;;;;;5051758;28;20029;-70
2023/03/31 10:54:14;;;;;;;0.40;0.40;;;;;;;;;;5051668;28;20115;-69
2023/03/31 10:56:43;;;;;;;1.98;0.93;;;;;;;;;;5051469;28;20048;-69
2023/03/31 10:59:33;;;;;;;1.90;1.15;;;;;;;;;;5051715;28;20028;-68
2023/03/31 11:02:18;;;;;;;0.20;0.20;;;;;;;;;;5051469;28;20434;-66
2023/03/31 11:05:03;;;;;;;0.20;0.20;;;;;;;;;;5051684;28;20070;-67
2023/03/31 11:07:32;;;;;;;0.63;0.63;;;;;;;;;;5051443;28;20120;-66
2023/03/31 11:09:58;;;;;;;0.47;0.47;;;;;;;;;;5051159;28;20025;-66
2023/03/31 11:12:27;;;;;;;0.30;0.30;;;;;;;;;;5051251;28;20025;-70
2023/03/31 11:14:56;;;;;;;26.25;5.13;;;;;;;;;;5051113;28;20033;-71
2023/03/31 11:17:40;;;;;;;39.65;6.45;;;;;;;;;;5051173;28;20545;-70
2023/03/31 11:20:16;;;;;;;40.88;7.38;;;;;;;;;;5051112;28;20036;-67
2023/03/31 11:22:42;;;;;;;37.22;7.78;;;;;;;;;;5051186;28;20021;-65
2023/03/31 11:25:23;;;;;;;31.95;5.25;;;;;;;;;;5051129;28;20029;-66
2023/03/31 11:27:58;;;;;;;18.85;4.55;;;;;;;;;;5049909;28;20391;-65
2023/03/31 11:30:31;;;;;;;39.38;5.97;;;;;;;;;;5051070;28;20048;-64
2023/03/31 11:33:05;;;;;;;31.52;5.95;;;;;;;;;;5051145;28;20029;-65
2023/03/31 11:35:34;;;;;;;35.55;5.10;;;;;;;;;;5050975;28;20037;-65
2023/03/31 11:38:10;;;;;;;23.00;5.85;;;;;;;;;;5051004;28;20075;-64
2023/03/31 11:40:51;;;;;;;26.52;5.20;;;;;;;;;;5050967;28;20041;-65
2023/03/31 11:43:26;;;;;;;32.53;4.80;;;;;;;;;;5050969;28;20029;-64
2023/03/31 11:45:54;;;;;;;26.20;4.65;;;;;;;;;;5051046;28;20496;-64
2023/03/31 11:48:41;;;;;;;37.80;5.95;;;;;;;;;;5051547;28;20145;-63
2023/03/31 11:51:11;;;;;;;20.38;5.75;;;;;;;;;;5050082;28;20147;-64
2023/03/31 11:53:38;;;;;;;25.60;5.90;;;;;;;;;;5050793;28;20052;-64
2023/03/31 11:56:06;;;;;;;21.23;4.40;;;;;;;;;;5050785;28;20037;-63
2023/03/31 11:58:37;;;;;;;37.97;6.07;;;;;;;;;;5050829;28;20405;-63
2023/03/31 12:01:09;;;;;;;21.92;5.43;;;;;;;;;;5051122;28;20028;-64
2023/03/31 12:03:42;;;;;;;24.15;5.10;;;;;;;;;;5054847;28;20040;-64
2023/03/31 12:06:17;;;;;;;31.42;4.95;;;;;;;;;;5054851;28;20020;-65
2023/03/31 12:08:49;;;;;;;23.30;4.70;;;;;;;;;;5054728;28;20025;-64
2023/03/31 12:11:23;;;;;;;21.88;3.90;;;;;;;;;;5054581;28;20029;-65
2023/03/31 12:14:00;;;;;;;27.90;4.65;;;;;;;;;;5054689;28;20091;-64
2023/03/31 12:16:26;;;;;;;34.80;6.70;;;;;;;;;;5054479;28;20033;-64
2023/03/31 12:19:13;;;;;;;26.02;4.35;;;;;;;;;;5054635;28;20492;-64
2023/03/31 12:21:40;;;;;;;31.00;6.85;;;;;;;;;;5054189;28;20029;-64
2023/03/31 12:24:10;;;;;;;24.30;4.85;;;;;;;;;;5054687;28;20029;-65
2023/03/31 12:26:39;;;;;;;25.70;5.05;;;;;;;;;;5053176;28;20359;-64
2023/03/31 12:29:24;;;;;;;26.88;5.88;;;;;;;;;;5054323;28;20482;-64
2023/03/31 12:31:50;;;;;;;22.42;4.50;;;;;;;;;;5054179;28;20087;-64
2023/03/31 12:34:18;;;;;;;26.00;4.10;;;;;;;;;;5052974;28;20062;-65
2023/03/31 12:37:04;;;;;;;23.52;4.18;;;;;;;;;;5052807;28;20033;-64
2023/03/31 12:39:49;;;;;;;20.65;4.28;;;;;;;;;;5053456;28;20127;-65
2023/03/31 12:42:35;;;;;;;29.63;5.13;;;;;;;;;;5053893;28;20049;-64
2023/03/31 12:45:24;;;;;;;27.17;5.38;;;;;;;;;;5053431;28;20370;-65
2023/03/31 12:47:50;;;;;;;26.90;4.63;;;;;;;;;;5053805;28;20483;-64
2023/03/31 12:50:19;;;;;;;22.13;4.38;;;;;;;;;;5054319;28;20032;-65
2023/03/31 12:52:58;;;;;;;25.67;5.75;;;;;;;;;;5053717;28;20024;-64
2023/03/31 12:55:37;;;;;;;28.00;5.90;;;;;;;;;;5053511;28;20116;-63
2023/03/31 12:58:35;;;;;;;24.02;4.63;;;;;;;;;;5053793;28;20452;-64
2023/03/31 13:01:03;;;;;;;26.33;4.78;;;;;;;;;;5052260;28;20041;-64
2023/03/31 13:03:42;;;;;;;26.20;4.78;;;;;;;;;;5053955;28;20159;-65
2023/03/31 13:06:11;;;;;;;20.13;5.10;;;;;;;;;;5053836;28;20438;-65
2023/03/31 13:08:55;;;;;;;22.65;4.15;;;;;;;;;;5053380;28;20032;-65
2023/03/31 13:11:43;;;;;;;32.00;5.68;;;;;;;;;;5053453;28;20021;-64
2023/03/31 13:14:21;;;;;;;22.40;4.43;;;;;;;;;;5053444;28;20025;-65
2023/03/31 13:16:48;;;;;;;32.95;5.03;;;;;;;;;;5053453;28;20037;-65
2023/03/31 13:19:36;;;;;;;20.65;5.32;;;;;;;;;;5053434;28;20180;-65
2023/03/31 13:22:03;;;;;;;23.10;4.60;;;;;;;;;;5053275;28;20099;-65
2023/03/31 13:24:30;;;;;;;30.95;6.47;;;;;;;;;;5053348;28;20033;-65
2023/03/31 13:26:58;;;;;;;25.60;5.90;;;;;;;;;;5053273;28;20021;-65
2023/03/31 13:29:40;;;;;;;25.92;5.55;;;;;;;;;;5053354;28;20409;-65
2023/03/31 13:32:17;;;;;;;23.92;4.10;;;;;;;;;;5052893;28;20056;-63
2023/03/31 13:35:03;;;;;;;22.92;5.13;;;;;;;;;;5053128;28;20045;-66
2023/03/31 13:37:45;;;;;;;18.73;4.18;;;;;;;;;;5052295;28;20121;-65
2023/03/31 13:40:14;;;;;;;24.02;5.95;;;;;;;;;;5053258;28;20021;-67
2023/03/31 13:42:46;;;;;;;37.45;6.70;;;;;;;;;;5052905;28;20033;-65
2023/03/31 13:45:21;;;;;;;28.08;5.20;;;;;;;;;;5052764;28;20036;-66
2023/03/31 13:47:58;;;;;;;29.02;5.88;;;;;;;;;;5052890;28;20025;-65
2023/03/31 13:50:24;;;;;;;25.17;6.32;;;;;;;;;;5052722;28;20025;-65
2023/03/31 13:53:25;;;;;;;28.63;6.53;;;;;;;;;;5052822;28;20159;-65
2023/03/31 13:56:10;;;;;;;27.98;5.10;;;;;;;;;;5049812;28;20115;-64
2023/03/31 13:58:39;;;;;;;31.50;6.32;;;;;;;;;;5052407;28;20037;-65
2023/03/31 14:01:21;;;;;;;41.25;6.07;;;;;;;;;;5052344;28;20043;-65
2023/03/31 14:03:47;;;;;;;;;;;;;;;;;;5053093;28;20025;-65
2023/03/31 14:06:19;;;;;;;42.30;6.63;;;;;;;;;;5052449;28;20271;-67
2023/03/31 14:08:54;;;;;;;27.45;5.68;;;;;;;;;;5052366;28;20025;-65
2023/03/31 14:11:23;;;;;;;33.00;7.38;;;;;;;;;;5051993;28;20025;-64
2023/03/31 14:14:02;;;;;;;28.15;6.70;;;;;;;;;;5052075;28;20036;-64
2023/03/31 14:16:29;;;;;;;25.45;5.20;;;;;;;;;;5052042;28;20496;-65
2023/03/31 14:18:59;;;;;;;40.33;7.05;;;;;;;;;;5052135;28;20013;-66
2023/03/31 14:21:32;;;;;;;38.67;7.38;;;;;;;;;;5052043;28;20040;-66
2023/03/31 14:24:07;;;;;;;35.15;6.22;;;;;;;;;;5050217;28;20045;-65
2023/03/31 14:26:33;;;;;;;48.53;7.95;;;;;;;;;;5051937;28;20412;-67
2023/03/31 14:29:02;;;;;;;35.00;7.40;;;;;;;;;;5050000;28;20107;-65
2023/03/31 14:31:44;;;;;;;26.35;6.30;;;;;;;;;;5035022;28;20025;-67
2023/03/31 14:34:29;;;;;;;34.88;5.65;;;;;;;;;;5033301;28;20189;-66
2023/03/31 14:36:59;;;;;;;23.15;5.50;;;;;;;;;;5040896;28;20025;-64
2023/03/31 14:39:45;;;;;;;26.58;4.65;;;;;;;;;;5040121;28;20025;-66
2023/03/31 14:42:13;;;;;;;27.70;5.72;;;;;;;;;;5051214;28;20505;-67
2023/03/31 14:44:41;;;;;;;39.00;5.75;;;;;;;;;;5041458;28;20041;-67
2023/03/31 14:47:12;;;;;;;32.08;6.18;;;;;;;;;;5031533;28;20060;-65
2023/03/31 14:49:39;;;;;;;27.48;4.75;;;;;;;;;;5031800;28;20091;-66
2023/03/31 14:52:13;;;;;;;29.23;6.03;;;;;;;;;;5031666;28;20020;-66
2023/03/31 14:54:40;;;;;;;24.80;4.50;;;;;;;;;;5032017;28;20091;-65
2023/03/31 14:57:06;;;;;;;30.50;5.30;;;;;;;;;;5032079;28;20042;-65